V.b. Bravo — EAOV — position and weather

sailwx.info

Track history (hours):
 
Tides and Currents Weather Stations Pressure Air Temp Water Temp Dewpoint Dewpoint Depression Visibility Wind Speed Wind Dir Waves Ship Positions

V.b. Bravo

Last reported at 2017-Aug-07 08:25 UTC. Time now 2017-Sep-19 17:02 UTC.
Position N 37°09' W 006°53'.
Warning: this ship's position is 43 days out of date.

Length 35 m; draft 6 m.

Type: Tug. MMSI: 225401000.

Date/timePositionNaut miles runAvg speedWind from/ knotsBaromVisibWave heightAir tempDewpointWater temp
2017-Aug-07 08:25N 37°09' W 006°53'0 0.0
2017-Aug-07 07:43N 37°09' W 006°53'0 0.0
2017-Aug-07 06:13N 37°09' W 006°53'0 0.0
2017-Aug-07 05:52N 37°09' W 006°53'0 0.0
2017-Aug-07 04:13N 37°09' W 006°53'0 0.0
2017-Aug-07 02:49N 37°09' W 006°53'0 0.0
2017-Aug-07 01:40N 37°09' W 006°53'2 0.1
2017-Aug-06 09:34N 37°10' W 006°55'0 0.8
2017-Aug-06 09:30N 37°10' W 006°55'2 3.4
2017-Aug-06 08:52N 37°09' W 006°53'0 0.3
2017-Aug-06 08:28N 37°09' W 006°53'0 0.2
2017-Aug-06 07:58N 37°09' W 006°53'0 0.0
2017-Aug-06 07:28N 37°09' W 006°53'0 0.0
2017-Aug-06 06:43N 37°09' W 006°53'0 0.0
2017-Aug-06 06:28N 37°09' W 006°53'0 0.0
2017-Aug-06 05:49N 37°09' W 006°53'0 0.0
2017-Aug-06 05:28N 37°09' W 006°53'0 0.0
2017-Aug-06 04:58N 37°09' W 006°53'0 0.0
2017-Aug-06 03:25N 37°09' W 006°53'0 0.0
2017-Aug-06 02:55N 37°09' W 006°53'0 0.0
2017-Aug-06 02:25N 37°09' W 006°53'0 0.0
2017-Aug-06 01:16N 37°09' W 006°53'0 0.0
2017-Aug-05 04:49N 37°09' W 006°53'0 0.0
2017-Aug-05 04:28N 37°09' W 006°53'0 0.0
2017-Aug-05 03:49N 37°09' W 006°53'0 0.0
2017-Aug-05 01:25N 37°09' W 006°53'  
2017-Jul-29 06:40N 37°09' W 006°54'1 1.2
2017-Jul-29 05:33N 37°10' W 006°55'0 1.4
2017-Jul-29 05:22N 37°10' W 006°55'3 4.5
2017-Jul-29 04:49N 37°09' W 006°52'1 0.5
2017-Jul-29 03:44N 37°09' W 006°53'0 0.0
2017-Jul-28 09:41N 37°09' W 006°53'0 0.0
2017-Jul-28 09:22N 37°09' W 006°53'0 0.0
2017-Jul-28 08:53N 37°09' W 006°53'0 0.0
2017-Jul-28 08:25N 37°09' W 006°53'  
Track history (hours):
 
Tides and Currents Weather Stations Pressure Air Temp Water Temp Dewpoint Dewpoint Depression Visibility Wind Speed Wind Dir Waves Ship Positions

V.b. Bravo

Last reported at 2017-Aug-07 08:25 UTC. Time now 2017-Sep-19 17:02 UTC.
Position N 37°09' W 006°53'.
Warning: this ship's position is 43 days out of date.

Length 35 m; draft 6 m.

Type: Tug. MMSI: 225401000.

Date/timePositionNaut miles runAvg speedWind from/ knotsBaromVisibWave heightAir tempDewpointWater temp
2017-Aug-07 08:25N 37°09' W 006°53'0 0.0
2017-Aug-07 07:43N 37°09' W 006°53'0 0.0
2017-Aug-07 06:13N 37°09' W 006°53'0 0.0
2017-Aug-07 05:52N 37°09' W 006°53'0 0.0
2017-Aug-07 04:13N 37°09' W 006°53'0 0.0
2017-Aug-07 02:49N 37°09' W 006°53'0 0.0
2017-Aug-07 01:40N 37°09' W 006°53'2 0.1
2017-Aug-06 09:34N 37°10' W 006°55'0 0.8
2017-Aug-06 09:30N 37°10' W 006°55'2 3.4
2017-Aug-06 08:52N 37°09' W 006°53'0 0.3
2017-Aug-06 08:28N 37°09' W 006°53'0 0.2
2017-Aug-06 07:58N 37°09' W 006°53'0 0.0
2017-Aug-06 07:28N 37°09' W 006°53'0 0.0
2017-Aug-06 06:43N 37°09' W 006°53'0 0.0
2017-Aug-06 06:28N 37°09' W 006°53'0 0.0
2017-Aug-06 05:49N 37°09' W 006°53'0 0.0
2017-Aug-06 05:28N 37°09' W 006°53'0 0.0
2017-Aug-06 04:58N 37°09' W 006°53'0 0.0
2017-Aug-06 03:25N 37°09' W 006°53'0 0.0
2017-Aug-06 02:55N 37°09' W 006°53'0 0.0
2017-Aug-06 02:25N 37°09' W 006°53'0 0.0
2017-Aug-06 01:16N 37°09' W 006°53'0 0.0
2017-Aug-05 04:49N 37°09' W 006°53'0 0.0
2017-Aug-05 04:28N 37°09' W 006°53'0 0.0
2017-Aug-05 03:49N 37°09' W 006°53'0 0.0
2017-Aug-05 01:25N 37°09' W 006°53'  
2017-Jul-29 06:40N 37°09' W 006°54'1 1.2
2017-Jul-29 05:33N 37°10' W 006°55'0 1.4
2017-Jul-29 05:22N 37°10' W 006°55'3 4.5
2017-Jul-29 04:49N 37°09' W 006°52'1 0.5
2017-Jul-29 03:44N 37°09' W 006°53'0 0.0
2017-Jul-28 09:41N 37°09' W 006°53'0 0.0
2017-Jul-28 09:22N 37°09' W 006°53'0 0.0
2017-Jul-28 08:53N 37°09' W 006°53'0 0.0
2017-Jul-28 08:25N 37°09' W 006°53'  

Dump ship's entire track history